KBAM/BAM METAR and TAF weather

Enter ICAO airport designator
Station Type Date Time Source
KBAM METAR 2018/10/19 15:15 UTC NOAA

KBAM 191515Z AUTO 00000KT 10SM CLR 00/M07 A3042 RMK AO1


Station Type Date Time Source
KBAM Decoded METAR 2018/10/19 15:15 UTC NOAA

Station name not available
Oct 19, 2018 - 11:15 AM EDT / 2018.10.19 1515 UTC
Wind: Calm:0
Visibility: 10 mile(s):0
Sky conditions: clear
Temperature: 32 F (0 C)
Dew Point: 19 F (-7 C)
Relative Humidity: 59%
Pressure (altimeter): 30.42 in. Hg (1030 hPa)
ob: KBAM 191515Z AUTO 00000KT 10SM CLR 00/M07 A3042 RMK AO1
cycle: 15

Station Type Date Time Source
KBAM TAF 2018/10/19 12:22 UTC NOAA

TAF KBAM 191120Z 1912/2012 VRB06KT P6SM SKC


Example: see airport list